Latest Coastal Weather Observations for Maatsuyker Island

IDT60701

Issued at 3:03 pm EDT Friday 24 February 2017 (issued every 10 minutes, with the page automatically refreshed every 10 minutes)

About coastal observations | Map of coastal stations | Coastal observations for TAS | Marine services | Other Formats
Station Details ID: 094041 Name: MAATSUYKER ISLAND LIGHTHOUSE Lat: -43.66 Lon: 146.27 Height: 146.5 m
Data from the previous 72 hours. | See also: Recent months at Maatsuyker Island
Date/Time
EDT
Temp
°C
Wind Pressure Rain since
9am
mm
Weather Cloud Vis
km
Sea
Height
m
Swell
Dir  Spd
kts
Gust
kts
hPa Trend Height
m
Period
s
Dir
24/03:00pm 14.4 NW 26 29 1021.2 - 0.0 - - - - - - -
24/02:30pm 13.1 NW 25 29 1021.5 - 0.0 - - - - - - -
24/02:00pm 13.1 NW 28 30 1021.2 - 0.0 - - - - - - -
24/01:30pm 13.3 NW 29 33 1020.8 - 0.0 - - - - - - -
24/01:07pm 12.2 WNW 30 40 1021.0 - 0.0 - - - - - - -
24/01:00pm 12.3 WNW 33 40 1020.8 - 0.0 - - - - - - -
24/12:30pm 13.8 NW 34 38 1019.6 - 0.0 - - - - - - -
24/12:00pm 13.7 NNW 29 35 1019.5 - 0.0 - - - - - - -
24/11:45am 14.0 NW 37 40 1019.2 - 0.0 - - - - - - -
24/11:30am 13.8 NNW 27 35 1019.4 - 0.0 - - - - - - -
24/11:00am 13.4 NW 30 36 1019.8 - 0.0 - - - - - - -
24/10:30am 12.4 NW 33 39 1019.7 - 0.0 - - - - - - -
24/10:27am 12.8 NW 32 39 1020.0 - 0.0 - - - - - - -
24/10:25am 13.0 NNW 20 33 1020.0 - 0.0 - - - - - - -
24/10:00am 12.8 NNW 17 23 1020.1 - 0.0 - - - - - - -
24/09:30am 12.4 NNW 20 25 1019.9 - 0.0 - - - - - - -
24/09:00am 12.4 NNW 21 27 1019.6 R 0.8 Showers Mostly cloudy 18 1 2.5 12 SW
24/08:30am 12.4 NNW 21 27 1019.4 - 0.8 - - - - - - -
24/08:00am 12.0 NNW 18 23 1019.3 - 0.6 - - - - - - -
24/07:30am 11.9 NNW 18 27 1019.1 - 0.6 - - - - - - -
24/07:00am 11.9 NNW 18 24 1018.8 - 0.6 - - - - - - -
24/06:30am 11.7 NNW 18 23 1018.7 - 0.6 - - - - - - -
24/06:00am 11.6 NNW 25 33 1018.3 F 0.6 Showers Cloudy 15 1 2.0 13 S
24/05:48am 11.7 NNW 25 35 1018.0 - 0.6 - - - - - - -
24/05:30am 11.9 NNW 21 30 1018.4 - 0.4 - - - - - - -
24/05:28am 12.1 NNW 20 30 1018.3 - 0.4 - - - - - - -
24/05:00am 11.8 NNW 18 25 1018.4 - 0.4 - - - - - - -
24/04:30am 11.6 NNW 17 21 1018.7 - 0.4 - - - - - - -
24/04:00am 11.6 NNW 17 23 1019.0 - 0.4 - - - - - - -
24/03:30am 11.7 NNW 19 23 1019.0 - 0.4 - - - - - - -
24/03:00am 12.3 NNW 16 21 1018.8 - 0.0 - - - - - - -
24/02:30am 12.2 NNW 15 19 1019.0 - 0.0 - - - - - - -
24/02:00am 12.2 NNW 16 20 1019.1 - 0.0 - - - - - - -
24/01:30am 12.2 NNW 16 21 1019.3 - 0.0 - - - - - - -
24/01:00am 12.2 NNW 15 18 1019.4 - 0.0 - - - - - - -
24/12:30am 12.2 NNW 16 21 1019.4 - 0.0 - - - - - - -
24/12:00am 12.4 NNW 21 25 1019.1 - 0.0 - - - - - - -
 
Date/Time
EDT
Temp
°C
Wind Pressure Rain since
9am
mm
Weather Cloud Vis
km
Sea
Height
m
Swell
Dir  Spd
kts
Gust
kts
hPa Trend Height
m
Period
s
Dir
23/11:30pm 12.4 NW 22 25 1019.2 - 0.0 - - - - - - -
23/11:00pm 12.5 NW 25 28 1019.2 - 0.0 - - - - - - -
23/10:30pm 12.5 NW 26 29 1019.1 - 0.0 - - - - - - -
23/10:00pm 12.7 NW 23 26 1018.8 - 0.0 - - - - - - -
23/09:30pm 12.6 NW 21 23 1018.6 - 0.0 - - - - - - -
23/09:00pm 12.5 NW 20 22 1018.2 - 0.0 - - - - - - -
23/08:30pm 12.6 NW 19 23 1017.7 - 0.0 - - - - - - -
23/08:00pm 12.3 NW 22 25 1017.2 - 0.0 - - - - - - -
23/07:30pm 12.4 NW 25 31 1016.7 - 0.0 - - - - - - -
23/07:00pm 12.2 WNW 23 27 1016.2 - 0.0 - - - - - - -
23/06:30pm 12.3 WNW 25 29 1015.8 - 0.0 - - - - - - -
23/06:00pm 12.4 WNW 25 30 1015.2 - 0.0 - - - - - - -
23/05:30pm 12.7 WNW 27 33 1014.4 - 0.0 - - - - - - -
23/05:00pm 13.4 NW 35 40 1013.5 - 0.0 - - - - - - -
23/04:30pm 14.3 NW 35 39 1012.6 - 0.0 - - - - - - -
23/04:00pm 14.7 NW 34 38 1012.1 - 0.0 - - - - - - -
23/03:30pm 14.7 NW 34 38 1011.9 - 0.0 - - - - - - -
23/03:00pm 15.1 NNW 27 33 1012.0 - 0.0 - - - - - - -
23/02:30pm 15.1 NNW 27 32 1012.1 - 0.0 - - - - - - -
23/02:00pm 15.1 NNW 28 34 1011.8 - 0.0 - - - - - - -
23/01:30pm 15.0 NNW 29 34 1011.4 - 0.0 - - - - - - -
23/01:00pm 15.3 NNW 28 32 1010.7 - 0.0 - - - - - - -
23/12:30pm 15.3 NNW 26 30 1010.5 - 0.0 - - - - - - -
23/12:00pm 15.1 NNW 27 34 1009.8 - 0.0 - - - - - - -
23/11:30am 14.8 NNW 27 34 1009.5 - 0.0 - - - - - - -
23/11:00am 15.3 NNW 23 28 1009.1 - 0.0 - - - - - - -
23/10:30am 15.4 NNW 23 30 1008.6 - 0.0 - - - - - - -
23/10:00am 15.2 NNW 22 27 1008.4 - 0.0 - - - - - - -
23/09:30am 15.3 NNW 22 30 1008.2 - 0.0 - - - - - - -
23/09:00am 15.4 NNW 21 28 1007.8 R 0.2 Recent precip. Partly cloudy 18 1 1.0 12 SW
23/08:49am 15.3 NNW 25 35 1007.5 - 0.2 - - - - - - -
23/08:30am 15.9 NNW 24 29 1007.2 - 0.2 - - - - - - -
23/08:00am 16.1 NNW 23 28 1006.8 - 0.2 - - - - - - -
23/07:30am 16.0 NNW 23 27 1006.4 - 0.2 - - - - - - -
23/07:05am 16.1 NNW 19 29 1005.9 - 0.2 - - - - - - -
23/07:00am 16.0 NNW 19 24 1006.0 - 0.2 - - - - - - -
23/06:30am 16.1 NNW 19 25 1006.0 - 0.2 - - - - - - -
23/06:00am 16.2 NNW 24 30 1005.7 R 0.2 Haze Partly cloudy 18 1 1.5 11 SW
23/05:30am 16.5 NNW 25 32 1005.5 - 0.2 - - - - - - -
23/05:00am 16.6 NNW 24 31 1005.2 - 0.2 - - - - - - -
23/04:30am 16.0 NNW 22 28 1005.1 - 0.2 - - - - - - -
23/04:00am 15.1 NNW 17 21 1005.5 - 0.0 - - - - - - -
23/03:30am 15.4 NW 25 27 1005.3 - 0.0 - - - - - - -
23/03:26am 15.4 NW 25 27 1005.3 - 0.0 - - - - - - -
23/03:00am 16.9 NW 35 40 1004.1 - 0.0 - - - - - - -
23/02:54am 17.4 NW 35 38 1004.4 - 0.0 - - - - - - -
23/02:48am 19.0 NW 25 31 1005.0 - 0.0 - - - - - - -
23/02:47am 19.6 N 15 31 1004.9 - 0.0 - - - - - - -
23/02:30am 21.4 N 11 15 1004.4 - 0.0 - - - - - - -
23/02:00am 22.4 N 9 11 1004.5 - 0.0 - - - - - - -
23/01:30am 22.3 N 15 20 1005.5 - 0.0 - - - - - - -
23/01:20am 22.2 N 15 22 1005.8 - 0.0 - - - - - - -
23/01:00am 21.4 N 10 12 1006.0 - 0.0 - - - - - - -
23/12:30am 21.8 N 10 13 1006.2 - 0.0 - - - - - - -
23/12:00am 22.4 ENE 10 15 1006.0 - 0.0 - - - - - - -
 
Date/Time
EDT
Temp
°C
Wind Pressure Rain since
9am
mm
Weather Cloud Vis
km
Sea
Height
m
Swell
Dir  Spd
kts
Gust
kts
hPa Trend Height
m
Period
s
Dir
22/11:30pm 21.6 NE 9 12 1006.9 - 0.0 - - - - - - -
22/11:00pm 22.3 ENE 13 15 1007.5 - 0.0 - - - - - - -
22/10:30pm 22.1 ENE 11 14 1007.8 - 0.0 - - - - - - -
22/10:00pm 21.6 N 3 5 1008.0 - 0.0 - - - - - - -
22/09:30pm 21.8 NNE 4 7 1008.3 - 0.0 - - - - - - -
22/09:00pm 21.8 NE 6 9 1008.3 - 0.0 - - - - - - -
22/08:30pm 21.7 NE 5 9 1008.5 - 0.0 - - - - - - -
22/08:00pm 21.0 N 3 6 1008.5 - 0.0 - - - - - - -
22/07:30pm 22.1 E 4 7 1008.9 - 0.0 - - - - - - -
22/07:00pm 21.1 E 4 7 1009.1 - 0.0 - - - - - - -
22/06:30pm 22.2 N 4 10 1009.4 - 0.0 - - - - - - -
22/06:00pm 21.6 E 6 9 1009.0 - 0.0 - - - - - - -
22/05:30pm 21.9 E 6 11 1009.3 - 0.0 - - - - - - -
22/05:00pm 22.4 N 5 9 1009.4 - 0.0 - - - - - - -
22/04:30pm 23.7 NNW 4 9 1009.9 - 0.0 - - - - - - -
22/04:00pm 22.5 N 5 8 1010.0 - 0.0 - - - - - - -
22/03:30pm 22.3 N 4 7 1010.5 - 0.0 - - - - - - -
22/03:00pm 25.0 NNW 7 10 1010.3 - 0.0 - - - - - - -
22/02:30pm 24.9 NNW 8 10 1010.9 - 0.0 - - - - - - -
22/02:00pm 24.5 NNW 9 15 1011.2 - 0.0 - - - - - - -
22/01:30pm 23.6 N 11 14 1011.6 - 0.0 - - - - - - -
22/01:00pm 22.1 N 12 16 1011.8 - 0.0 - - - - - - -
22/12:30pm 21.1 N 12 17 1012.1 - 0.0 - - - - - - -
22/12:00pm 20.3 N 13 17 1012.5 - 0.0 - - - - - - -
22/11:30am 19.0 N 9 12 1013.1 - 0.0 - - - - - - -
22/11:00am 17.9 N 10 14 1013.2 - 0.0 - - - - - - -
22/10:30am 17.2 N 8 11 1013.5 - 0.0 - - - - - - -
22/10:00am 16.6 N 10 13 1013.5 - 0.0 - - - - - - -
22/09:30am 15.5 N 11 13 1013.9 - 0.0 - - - - - - -
22/09:00am 15.0 N 8 11 1013.7 F 0.0 Fine Mostly cloudy 25 <0.1 1.5 12 SE
22/08:30am 14.5 N 9 14 1013.9 - 0.0 - - - - - - -
22/08:00am 13.5 N 9 13 1014.1 - 0.0 - - - - - - -
22/07:30am 13.1 NNE 8 13 1014.0 - 0.0 - - - - - - -
22/07:00am 12.2 NNE 6 8 1014.2 - 0.0 - - - - - - -
22/06:30am 11.4 N 7 9 1014.3 - 0.0 - - - - - - -
22/06:00am 10.9 N 6 8 1014.3 F 0.0 Haze Partly cloudy 10 <0.1 1.5 12 SE
22/05:30am 11.0 NNE 2 5 1014.7 - 0.0 - - - - - - -
22/05:00am 11.5 NNE 4 7 1014.9 - 0.0 - - - - - - -
22/04:30am 11.2 NNE 1 5 1015.5 - 0.0 - - - - - - -
22/04:00am 11.2 NNE 2 6 1015.8 - 0.0 - - - - - - -
22/03:30am 11.1 NE 4 7 1016.0 - 0.0 - - - - - - -
22/03:00am 11.0 N 3 7 1016.6 - 0.0 - - - - - - -
22/02:30am 10.8 NNE 2 5 1017.1 - 0.0 - - - - - - -
22/02:00am 10.7 NNE 5 6 1017.6 - 0.0 - - - - - - -
22/01:30am 10.2 N 2 5 1018.1 - 0.0 - - - - - - -
22/01:00am 10.6 N 3 4 1018.1 - 0.0 - - - - - - -
22/12:30am 10.7 NNW 5 6 1018.3 - 0.0 - - - - - - -
22/12:00am 10.7 NNW 5 7 1018.6 - 0.0 - - - - - - -
 
Date/Time
EDT
Temp
°C
Wind Pressure Rain since
9am
mm
Weather Cloud Vis
km
Sea
Height
m
Swell
Dir  Spd
kts
Gust
kts
hPa Trend Height
m
Period
s
Dir
21/11:30pm 10.7 NNW 7 8 1018.7 - 0.0 - - - - - - -
21/11:00pm 11.3 NNW 8 10 1018.8 - 0.0 - - - - - - -
21/10:30pm 11.3 NNW 9 12 1019.2 - 0.0 - - - - - - -
21/10:00pm 11.6 NNW 13 16 1019.4 - 0.0 - - - - - - -
21/09:30pm 11.6 NW 16 18 1019.1 - 0.0 - - - - - - -
21/09:00pm 11.6 NW 15 19 1019.2 - 0.0 - - - - - - -
21/08:30pm 11.5 NW 18 21 1019.1 - 0.0 - - - - - - -
21/08:00pm 11.7 NW 19 21 1018.8 - 0.0 - - - - - - -
21/07:30pm 12.0 NW 21 25 1018.7 - 0.0 - - - - - - -
21/07:00pm 12.6 NW 21 24 1018.6 - 0.0 - - - - - - -
21/06:30pm 12.5 NW 21 25 1018.5 - 0.0 - - - - - - -
21/06:00pm 13.1 NW 21 23 1018.2 - 0.0 - - - - - - -
21/05:30pm 12.4 NW 25 28 1018.2 - 0.0 - - - - - - -
21/05:00pm 13.3 NW 24 27 1018.1 - 0.0 - - - - - - -
21/04:30pm 13.5 NW 26 29 1018.0 - 0.0 - - - - - - -
21/04:00pm 13.4 NW 26 29 1017.9 - 0.0 - - - - - - -
21/03:30pm 13.5 NW 26 29 1018.1 - 0.0 - - - - - - -

Other Formats:

Comma delimited format used in spreadsheet applications
http://www.bom.gov.au/fwo/IDT60701/IDT60701.94962.axf

JavaScript Object Notation format (JSON) in row-major order
http://www.bom.gov.au/fwo/IDT60701/IDT60701.94962.json